WetterOnline ( https://www.wetteronline.de )

Wetter aktuell Oberpörlitz

Aktuelles Wetter: Schmücke (948m)

6-stündlich | Neueste Meldungen
Ortszeit Temperatur Wetter
Fr, 24.05. 2:00 8.2° C bedeckt
Do, 23.05. 20:00 12.5° C bedeckt
Do, 23.05. 14:00 12.7° C bedeckt
Do, 23.05. 8:00 7.5° C leicht bewölkt
Do, 23.05. 2:00 5.8° C wolkig
Mi, 22.05. 20:00 7.7° C leicht bewölkt
Mi, 22.05. 14:00 7.6° C Sprühregen
Mi, 22.05. 8:00 7.5° C Sprühregen
Ortszeit Temperatur Wetter
Fr, 24.05. 6:30 9.0° C bewölkt
Fr, 24.05. 6:20 9.0° C bewölkt
Fr, 24.05. 6:10 8.9° C bewölkt
Fr, 24.05. 6:00 8.5° C bewölkt
Fr, 24.05. 5:50 8.5° C bewölkt
Fr, 24.05. 5:40 8.5° C bewölkt
Fr, 24.05. 5:30 8.2° C bedeckt
Fr, 24.05. 5:00 7.8° C wolkig
Fr, 24.05. 4:30 7.9° C wolkenlos
Fr, 24.05. 4:00 7.9° C wolkenlos
Fr, 24.05. 3:30 7.8° C leicht bewölkt
Ortszeit Relative Feuchte Sichtweite
Fr, 24.05. 2:00 85% 28 km
Do, 23.05. 20:00 65% 40 km
Do, 23.05. 14:00 55% 45 km
Do, 23.05. 8:00 90% 22 km
Do, 23.05. 2:00 90% 15 km
Mi, 22.05. 20:00 90% 27 km
Mi, 22.05. 14:00 99% 100 m
Mi, 22.05. 8:00 99% 0.4 km
Ortszeit Relative Feuchte Sichtweite
Fr, 24.05. 6:30 80% 35 km
Fr, 24.05. 6:20 80% -
Fr, 24.05. 6:10 80% -
Fr, 24.05. 6:00 82% 30 km
Fr, 24.05. 5:50 82% -
Fr, 24.05. 5:40 81% -
Fr, 24.05. 5:30 84% 28 km
Fr, 24.05. 5:00 86% 24 km
Fr, 24.05. 4:30 85% 27 km
Fr, 24.05. 4:00 85% 26 km
Fr, 24.05. 3:30 86% 26 km
Ortszeit Niederschlagsmenge Niederschlagsart
Fr, 24.05. 2:00 0.0 l/m2 in 6 Std. -
Do, 23.05. 20:00 0.0 l/m2 in 12 Std. -
Do, 23.05. 14:00 0.0 l/m2 in 6 Std. -
Do, 23.05. 8:00 0.0 l/m2 in 12 Std. -
Do, 23.05. 2:00 0.0 l/m2 in 6 Std. -
Mi, 22.05. 20:00 0.1 l/m2 in 12 Std. Regen
Mi, 22.05. 14:00 0.1 l/m2 in 6 Std. Sprühregen
Mi, 22.05. 8:00 0.8 l/m2 in 12 Std. Regen
Ortszeit Niederschlagsmenge Niederschlagsart
Fr, 24.05. 6:30 0.0 l/m2 in 1 Std. -
Fr, 24.05. 6:20 keine Meldung -
Fr, 24.05. 6:10 keine Meldung -
Fr, 24.05. 6:00 0.0 l/m2 in 1 Std. -
Fr, 24.05. 5:50 keine Meldung -
Fr, 24.05. 5:40 keine Meldung -
Fr, 24.05. 5:30 0.0 l/m2 in 1 Std. -
Fr, 24.05. 5:00 0.0 l/m2 in 1 Std. -
Fr, 24.05. 4:30 0.0 l/m2 in 1 Std. -
Fr, 24.05. 4:00 0.0 l/m2 in 1 Std. -
Fr, 24.05. 3:30 0.0 l/m2 in 1 Std. -
Ortszeit Stärke Spitze Richtung
km/h Bft. km/h Grad Sektor
Fr, 24.05. 2:00 7 2 11 230° SW
Do, 23.05. 20:00 4 1 25 30° NO
Do, 23.05. 14:00 6 1 28 330° NW
Do, 23.05. 8:00 6 1 13 260° W
Do, 23.05. 2:00 7 2 22 330° NW
Mi, 22.05. 20:00 9 2 30 300° NW
Mi, 22.05. 14:00 13 3 33 280° W
Mi, 22.05. 8:00 13 3 39 310° NW
Ortszeit Stärke Spitze Richtung
km/h Bft. km/h Grad Sektor
Fr, 24.05. 6:30 9 2 13 240° SW
Fr, 24.05. 6:20 9 2 - 240° SW
Fr, 24.05. 6:10 9 2 - 240° SW
Fr, 24.05. 6:00 9 2 13 240° SW
Fr, 24.05. 5:50 9 2 - 240° SW
Fr, 24.05. 5:40 9 2 - 240° SW
Fr, 24.05. 5:30 9 2 13 250° W
Fr, 24.05. 5:00 7 2 11 230° SW
Fr, 24.05. 4:30 7 2 9 220° SW
Fr, 24.05. 4:00 7 2 11 220° SW
Fr, 24.05. 3:30 7 2 9 230° SW
Ortszeit Untergrenze Bedeckung Gattung
total tief tief mittel hoch
Fr, 24.05. 2:00 5400 m 8/8 8/8 - - -
Do, 23.05. 20:00 1140 m 8/8 8/8 - - -
Do, 23.05. 14:00 1140 m 8/8 8/8 - - -
Do, 23.05. 8:00 9000 m 7/8 0/8 - - -
Do, 23.05. 2:00 660 m 6/8 6/8 - - -
Mi, 22.05. 20:00 450 m 3/8 2/8 - - -
Mi, 22.05. 14:00 <30 m 8/8 0/8 - - -
Mi, 22.05. 8:00 <30 m 8/8 0/8 - - -
Ortszeit Bedeckungsgrad in Achtel und Wolkenuntergrenze
Fr, 24.05. 6:30 7(1380m) 8(6300m) 8(9000m)
Fr, 24.05. 6:20 7(1380m) 8(6300m) 8(9000m)
Fr, 24.05. 6:10 7(1410m) 8(6300m) 8(9000m)
Fr, 24.05. 6:00 7(1380m) 7(5700m) 7(6300m)
Fr, 24.05. 5:50 7(1380m) 7(5700m) 7(6300m)
Fr, 24.05. 5:40 7(1380m) 7(5700m) 7(6300m)
Fr, 24.05. 5:30 8(1380m)
Fr, 24.05. 5:00 5(1410m) 5(6300m)
Fr, 24.05. 4:30 keine Wolken
Fr, 24.05. 4:00 keine Wolken
Fr, 24.05. 3:30 3(6000m) 3(9000m)
Ortszeit Stationsdruck (hPa) Tendenz (hPa in 3 Std.)
Fr, 24.05. 2:00 910 - 0,7
Do, 23.05. 20:00 910 - 0,4
Do, 23.05. 14:00 912 - 0,4
Do, 23.05. 8:00 911 + 0,2
Do, 23.05. 2:00 911 + 0,3
Mi, 22.05. 20:00 910 + 0,4
Mi, 22.05. 14:00 909 + 0,9
Mi, 22.05. 8:00 907 + 1,0
Ortszeit Stationsdruck (hPa) Tendenz (hPa in 3 Std.)
Fr, 24.05. 6:30 909 - 0,5
Fr, 24.05. 6:20 909 keine Meldung
Fr, 24.05. 6:10 909 keine Meldung
Fr, 24.05. 6:00 909 - 0,6
Fr, 24.05. 5:50 909 keine Meldung
Fr, 24.05. 5:40 909 keine Meldung
Fr, 24.05. 5:30 909 - 0,7
Fr, 24.05. 5:00 909 - 0,6
Fr, 24.05. 4:30 909 - 0,8
Fr, 24.05. 4:00 909 - 0,7
Fr, 24.05. 3:30 909 - 0,7
Ortszeit Schneehöhe (cm)
Fr, 24.05. 2:00 -
Do, 23.05. 20:00 -
Do, 23.05. 14:00 -
Do, 23.05. 8:00 -
Do, 23.05. 2:00 -
Mi, 22.05. 20:00 -
Mi, 22.05. 14:00 -
Mi, 22.05. 8:00 -
Ortszeit Schneehöhe (cm)
Fr, 24.05. 6:30 -
Fr, 24.05. 6:20 -
Fr, 24.05. 6:10 -
Fr, 24.05. 6:00 -
Fr, 24.05. 5:50 -
Fr, 24.05. 5:40 -
Fr, 24.05. 5:30 -
Fr, 24.05. 5:00 -
Fr, 24.05. 4:30 -
Fr, 24.05. 4:00 -
Fr, 24.05. 3:30 -
Link zu dieser Seite / Seite empfehlen

Das Wetter in ...